weather.gov     
National Weather Service

Terminal Aerodrome Forecast
NWS Homepage
This page is being discontinued on March 12, 2014.
The same data is available at this site. Please update your bookmarks.
Thank you, and we apologize for the inconvenience.
Please send an email to SR-SRH.Webmaster@noaa.gov with any concerns.


Current Version
Previous Version:    01  02  03  04  05  06  07  08  09  10  11  12  13  14  15  16  17  18  19  20  21  22  23  24  25  26  27  28  29  30  
   31  32  33  
[Printable]
748
FTUS43 KGRB 301100
TAFGRB
TAF
KGRB 301128Z 3012/3112 VRB03KT P6SM VCSH SCT012 OVC025
      TEMPO 3012/3016 5SM -SHRA BKN012
     FM301600 24006KT P6SM VCSH SCT012 OVC022
     FM302100 30007KT P6SM VCSH SCT010 BKN018
     FM310000 32005KT P6SM BKN020 BKN050
     FM310300 34005KT P6SM SCT020 BKN050
     FM310600 VRB03KT 4SM BR SCT020
      TEMPO 3108/3112 1SM BR SCT005=


U.S. Dept. of Commerce
NOAA National Weather Service
1325 East West Highway
Silver Spring, MD 20910
E-mail: w-nws.webmaster@noaa.gov
Page last modified: May 16, 2007
NATIONAL WEATHER SERVICE: for Safety, for Work, for Fun - FOR LIFE